首页
METAR-TAF:

METAR-TAF

机场 :

拉罗汤加国际机场

拉罗汤加岛, 库克群岛

纬度: 21-12S, 经度: 159-49W, 海拔: 7米

当前天气观测

该预报发布于27分钟前的15:30 UTC
风速8节,风向,在东转东北南转南东之间变化
温度 24°C
湿度 74%
气压 1013 hPa
能见度10公里或以上

METAR: NCRG 131530Z AUTO 10008KT 060V150 9999 FEW028/// SCT033/// 24/19 Q1013

时间: 05:57 (15:57 UTC)

预报

该预报发布于4小时和40分钟前的11:17 UTC
预报有效从13日的 12点(UTC)到 14日的 12点(UTC)
风速13节,风向
能见度10公里或以上
散云层高于1800英尺
多云层高于4000英尺
小阵雨

TAF: NCRG 131117Z 1312/1412 08013KT 9999 -SHRA SCT018 BKN040

超过4000个机场的气象观测和天气预报(METAR&TAF报告)。

可查询的气象台以黄色和红色小点在地图上表示。

将鼠标移到小点上方,可查看气象台名称。

然后点击查看天气观测和预报。

如需切换地图:点击带黑十字的绿色按钮放大地图;点击带横线的绿色按钮缩小地图;或者点击绿色箭头查看邻近地区的地图。


METAR-TAF: